x

Point Arguello, Ca (ptgc1) Weather Station

6:00 - Mon 27th Mar 2017 All times are PDT. -7 hours from GMT.

  • Wind
    24mph, 26mph gusts
  • Air Temp 54°f
  • Sea Pressure 1018.9mb
  • Point Arguello, Ca
  • Point Arguello, Ca

More Historic Weather Station data

Upgrade to MSW Pro to gain access to the past 30 days of data for over 8000 Wavebouys and Weather Stations around the globe.

Join Pro

Comparision Forecast

View Surf forecast
   
lun. 03/27 6:00 24 26 mph 1018.9mb 54f
5:00 21 22 mph 1018.6mb 54f
4:00 21 22 mph 1018.9mb 54f
3:00 16 17 mph 1018.9mb 55f
2:00 14 16 mph 1019.1mb 55f
1:00 15 16 mph 1019.9mb 55f
12:00 16 17 mph 1019.8mb 55f
dim. 03/26 11:00 15 17 mph 1019.8mb 55f
10:00 14 15 mph 1020.2mb 55f
9:00 18 20 mph 1019.9mb 55f
8:00 18 20 mph 1019.4mb 55f
7:00 17 18 mph 1019.1mb 55f
6:00 18 20 mph 1019.3mb 56f
5:00 21 25 mph 1019.4mb 56f
4:00 17 20 mph 1019.5mb 55f
3:00 17 18 mph 1020.1mb 55f
2:00 21 23 mph 1020.5mb 55f
1:00 22 25 mph 1020.6mb 55f
12:00 22 24 mph 1020.8mb 55f
11:00 18 21 mph 1020.3mb 55f
10:00 22 25 mph 1019.8mb 54f
9:00 22 24 mph 1019.3mb 54f
8:00 22 24 mph 1018.6mb 54f
7:00 22 24 mph 1018.1mb 54f
6:00 23 25 mph 1017.8mb 54f
5:00 26 28 mph 1017.6mb 54f
4:00 28 31 mph 1017.7mb 54f
3:00 28 30 mph 1018.2mb 54f
2:00 23 26 mph 1018.6mb 54f
1:00 24 26 mph 1018.9mb 55f
12:00 20 22 mph 1019.2mb 55f
sam. 03/25 11:00 17 20 mph 1019.7mb 55f
10:00 23 25 mph 1020.2mb 55f
9:00 22 25 mph 1020mb 55f
8:00 24 25 mph 1019.4mb 55f
7:00 23 25 mph 1019.3mb 55f
6:00 21 23 mph 1019.2mb 55f
5:00 25 28 mph 1019.2mb 56f
4:00 25 28 mph 1019.6mb 56f
3:00 24 28 mph 1019.8mb 56f
2:00 24 28 mph 1020.5mb 55f
1:00 20 23 mph 1021mb 56f
12:00 21 22 mph 1021.2mb 55f
11:00 14 15 mph 1021mb 55f
10:00 14 16 mph 1020.8mb 55f
9:00 14 17 mph 1020.9mb 55f
8:00 18
mph
1020.7mb 55f
7:00 22 24 mph 1020.1mb 55f
6:00 17 18 mph 1019.8mb 55f
5:00 1 2 mph 1019.8mb 57f
4:00  -  mph 1020.4mb 57f
3:00 1 2 mph 1021.2mb 57f
2:00 1 2 mph 1021.7mb 56f
1:00  -  1 mph 1022.2mb 56f
12:00 2 3 mph 1022.6mb 56f
ven. 03/24 11:00 3
mph
1023.2mb 56f
10:00 5
mph
1023.2mb 56f
9:00 3 5 mph 1022.7mb 57f
8:00 5 6 mph 1023.3mb 57f
7:00 7 8 mph 1023.4mb 56f
6:00 8
mph
1023.6mb 56f
5:00 7
mph
1023.6mb 56f
4:00 6 7 mph 1024.2mb 56f
3:00 7 8 mph 1025mb 56f
2:00 7 8 mph 1025.6mb 55f
1:00 6 7 mph 1026mb 56f
12:00 5 6 mph 1026mb 55f
11:00 6 7 mph 1025.9mb 55f
10:00 7
mph
1025.6mb 54f
9:00  -  1 mph 1025.3mb 54f
8:00 5 6 mph 1024.7mb 53f
7:00 13 15 mph 1024.1mb 52f
6:00 11 13 mph 1024.4mb 52f
5:00 14 17 mph 1023.8mb 52f
4:00 15 18 mph 1023.8mb 52f
3:00 16 18 mph 1024.4mb 52f
2:00 22 23 mph 1024.6mb 54f
1:00 22 23 mph 1024.5mb 54f
12:00 23 24 mph 1024.5mb 54f
jeu. 03/23 11:00 23 25 mph 1024.3mb 54f
10:00 25 26 mph 1024.5mb 54f
9:00 25 28 mph 1024mb 54f
8:00 28 30 mph 1023.7mb 54f
7:00 26 30 mph 1023.9mb 54f
6:00 30 32 mph 1023.1mb 54f
5:00 26 29 mph 1023mb 54f
4:00 24 26 mph 1022.9mb 54f
3:00 26 28 mph 1022.7mb 54f